sensor_id;sensor_type;location;lat;lon;timestamp;P1;durP1;ratioP1;P2;durP2;ratioP2
44428;SDS011;30134;47.866;-4.222;2022-10-31T00:01:12;30.80;;;21.10;;
44428;SDS011;30134;47.866;-4.222;2022-10-31T00:03:45;25.80;;;18.40;;
44428;SDS011;30134;47.866;-4.222;2022-10-31T00:06:11;27.70;;;18.23;;
44428;SDS011;30134;47.866;-4.222;2022-10-31T00:08:38;22.38;;;16.08;;
44428;SDS011;30134;47.866;-4.222;2022-10-31T00:11:07;20.90;;;14.85;;
44428;SDS011;30134;47.866;-4.222;2022-10-31T00:13:35;20.13;;;14.45;;
44428;SDS011;30134;47.866;-4.222;2022-10-31T00:16:00;17.08;;;12.30;;
44428;SDS011;30134;47.866;-4.222;2022-10-31T00:18:26;18.30;;;11.68;;
44428;SDS011;30134;47.866;-4.222;2022-10-31T00:21:02;19.02;;;12.02;;
44428;SDS011;30134;47.866;-4.222;2022-10-31T00:23:29;17.23;;;10.85;;
44428;SDS011;30134;47.866;-4.222;2022-10-31T00:25:59;15.65;;;10.45;;
44428;SDS011;30134;47.866;-4.222;2022-10-31T00:30:52;12.77;;;9.02;;
44428;SDS011;30134;47.866;-4.222;2022-10-31T00:33:18;11.23;;;7.80;;
44428;SDS011;30134;47.866;-4.222;2022-10-31T00:35:50;12.40;;;7.63;;
44428;SDS011;30134;47.866;-4.222;2022-10-31T00:38:16;11.35;;;7.32;;
44428;SDS011;30134;47.866;-4.222;2022-10-31T00:40:42;10.35;;;6.80;;
44428;SDS011;30134;47.866;-4.222;2022-10-31T00:43:08;10.27;;;6.18;;
44428;SDS011;30134;47.866;-4.222;2022-10-31T00:45:34;8.55;;;6.05;;
44428;SDS011;30134;47.866;-4.222;2022-10-31T00:48:00;9.52;;;5.75;;
44428;SDS011;30134;47.866;-4.222;2022-10-31T00:50:26;8.65;;;5.05;;
44428;SDS011;30134;47.866;-4.222;2022-10-31T00:52:52;8.45;;;4.80;;
44428;SDS011;30134;47.866;-4.222;2022-10-31T00:55:18;7.53;;;4.63;;
44428;SDS011;30134;47.866;-4.222;2022-10-31T00:57:46;6.60;;;4.35;;
44428;SDS011;30134;47.866;-4.222;2022-10-31T01:00:13;6.75;;;4.45;;
44428;SDS011;30134;47.866;-4.222;2022-10-31T01:02:40;6.72;;;3.47;;
44428;SDS011;30134;47.866;-4.222;2022-10-31T01:05:06;5.80;;;3.47;;
44428;SDS011;30134;47.866;-4.222;2022-10-31T01:07:35;5.80;;;3.47;;
44428;SDS011;30134;47.866;-4.222;2022-10-31T01:10:02;4.72;;;3.03;;
44428;SDS011;30134;47.866;-4.222;2022-10-31T01:12:35;4.60;;;2.90;;
44428;SDS011;30134;47.866;-4.222;2022-10-31T01:15:11;6.93;;;3.05;;
44428;SDS011;30134;47.866;-4.222;2022-10-31T01:17:39;4.90;;;2.97;;
44428;SDS011;30134;47.866;-4.222;2022-10-31T01:20:07;4.00;;;2.40;;
44428;SDS011;30134;47.866;-4.222;2022-10-31T01:22:36;5.00;;;2.63;;
44428;SDS011;30134;47.866;-4.222;2022-10-31T01:25:02;5.47;;;2.63;;
44428;SDS011;30134;47.866;-4.222;2022-10-31T01:27:28;3.35;;;2.42;;
44428;SDS011;30134;47.866;-4.222;2022-10-31T01:29:55;4.78;;;2.30;;
44428;SDS011;30134;47.866;-4.222;2022-10-31T01:32:21;5.90;;;2.00;;
44428;SDS011;30134;47.866;-4.222;2022-10-31T01:34:48;40.17;;;22.20;;
44428;SDS011;30134;47.866;-4.222;2022-10-31T01:37:14;183.32;;;116.60;;
44428;SDS011;30134;47.866;-4.222;2022-10-31T01:39:39;219.02;;;139.13;;
44428;SDS011;30134;47.866;-4.222;2022-10-31T01:42:09;185.23;;;116.82;;
44428;SDS011;30134;47.866;-4.222;2022-10-31T01:47:17;107.53;;;67.95;;
44428;SDS011;30134;47.866;-4.222;2022-10-31T01:50:09;94.65;;;58.75;;
44428;SDS011;30134;47.866;-4.222;2022-10-31T01:52:45;97.40;;;59.00;;
44428;SDS011;30134;47.866;-4.222;2022-10-31T01:55:18;89.13;;;55.67;;
44428;SDS011;30134;47.866;-4.222;2022-10-31T01:57:50;88.10;;;53.80;;
44428;SDS011;30134;47.866;-4.222;2022-10-31T02:00:19;78.85;;;50.80;;
44428;SDS011;30134;47.866;-4.222;2022-10-31T02:02:47;76.28;;;48.05;;
44428;SDS011;30134;47.866;-4.222;2022-10-31T02:05:21;71.80;;;47.50;;
44428;SDS011;30134;47.866;-4.222;2022-10-31T02:10:27;67.80;;;43.00;;
44428;SDS011;30134;47.866;-4.222;2022-10-31T02:12:58;64.35;;;39.35;;
44428;SDS011;30134;47.866;-4.222;2022-10-31T02:15:27;65.90;;;40.28;;
44428;SDS011;30134;47.866;-4.222;2022-10-31T02:17:55;57.22;;;36.58;;
44428;SDS011;30134;47.866;-4.222;2022-10-31T02:20:22;55.95;;;36.97;;
44428;SDS011;30134;47.866;-4.222;2022-10-31T02:23:13;55.90;;;34.78;;
44428;SDS011;30134;47.866;-4.222;2022-10-31T02:32:09;48.10;;;29.23;;
44428;SDS011;30134;47.866;-4.222;2022-10-31T02:34:47;43.45;;;28.50;;
44428;SDS011;30134;47.866;-4.222;2022-10-31T02:40:35;42.40;;;27.95;;
44428;SDS011;30134;47.866;-4.222;2022-10-31T02:43:26;40.25;;;26.08;;
44428;SDS011;30134;47.866;-4.222;2022-10-31T02:52:13;33.20;;;21.55;;
44428;SDS011;30134;47.866;-4.222;2022-10-31T02:55:09;34.20;;;20.92;;
44428;SDS011;30134;47.866;-4.222;2022-10-31T02:58:00;34.65;;;20.48;;
44428;SDS011;30134;47.866;-4.222;2022-10-31T03:01:26;31.23;;;19.20;;
44428;SDS011;30134;47.866;-4.222;2022-10-31T03:03:30;29.60;;;18.35;;
44428;SDS011;30134;47.866;-4.222;2022-10-31T03:09:34;28.75;;;17.70;;
44428;SDS011;30134;47.866;-4.222;2022-10-31T03:12:31;24.58;;;16.38;;
44428;SDS011;30134;47.866;-4.222;2022-10-31T03:15:22;24.88;;;15.75;;
44428;SDS011;30134;47.866;-4.222;2022-10-31T03:21:00;23.23;;;15.18;;
44428;SDS011;30134;47.866;-4.222;2022-10-31T03:23:39;21.30;;;14.00;;
44428;SDS011;30134;47.866;-4.222;2022-10-31T03:26:08;21.63;;;12.70;;
44428;SDS011;30134;47.866;-4.222;2022-10-31T03:28:46;21.73;;;12.57;;
44428;SDS011;30134;47.866;-4.222;2022-10-31T03:31:25;20.75;;;12.68;;
44428;SDS011;30134;47.866;-4.222;2022-10-31T03:33:58;19.67;;;12.05;;
44428;SDS011;30134;47.866;-4.222;2022-10-31T03:36:27;17.55;;;11.35;;
44428;SDS011;30134;47.866;-4.222;2022-10-31T03:38:58;20.73;;;11.70;;
44428;SDS011;30134;47.866;-4.222;2022-10-31T03:41:29;16.88;;;10.70;;
44428;SDS011;30134;47.866;-4.222;2022-10-31T03:44:03;17.15;;;10.82;;
44428;SDS011;30134;47.866;-4.222;2022-10-31T03:46:36;18.45;;;10.73;;
44428;SDS011;30134;47.866;-4.222;2022-10-31T03:49:02;14.90;;;9.43;;
44428;SDS011;30134;47.866;-4.222;2022-10-31T03:54:02;17.00;;;9.85;;
44428;SDS011;30134;47.866;-4.222;2022-10-31T03:56:54;16.10;;;9.20;;
44428;SDS011;30134;47.866;-4.222;2022-10-31T03:59:37;12.52;;;8.05;;
44428;SDS011;30134;47.866;-4.222;2022-10-31T04:02:14;14.45;;;8.13;;
44428;SDS011;30134;47.866;-4.222;2022-10-31T04:04:43;13.23;;;7.93;;
44428;SDS011;30134;47.866;-4.222;2022-10-31T04:07:10;11.73;;;7.68;;
44428;SDS011;30134;47.866;-4.222;2022-10-31T04:09:38;11.73;;;7.38;;
44428;SDS011;30134;47.866;-4.222;2022-10-31T04:12:08;10.82;;;6.90;;
44428;SDS011;30134;47.866;-4.222;2022-10-31T04:14:38;11.20;;;7.20;;
44428;SDS011;30134;47.866;-4.222;2022-10-31T04:17:07;10.13;;;6.63;;
44428;SDS011;30134;47.866;-4.222;2022-10-31T04:19:40;11.35;;;6.88;;
44428;SDS011;30134;47.866;-4.222;2022-10-31T04:22:06;9.82;;;6.18;;
44428;SDS011;30134;47.866;-4.222;2022-10-31T04:24:32;9.27;;;5.43;;
44428;SDS011;30134;47.866;-4.222;2022-10-31T04:26:58;8.68;;;5.50;;
44428;SDS011;30134;47.866;-4.222;2022-10-31T04:29:24;8.98;;;5.50;;
44428;SDS011;30134;47.866;-4.222;2022-10-31T04:31:50;9.95;;;5.35;;
44428;SDS011;30134;47.866;-4.222;2022-10-31T04:34:16;9.13;;;5.75;;
44428;SDS011;30134;47.866;-4.222;2022-10-31T04:36:42;9.35;;;5.15;;
44428;SDS011;30134;47.866;-4.222;2022-10-31T04:39:08;8.30;;;4.72;;
44428;SDS011;30134;47.866;-4.222;2022-10-31T04:41:33;8.57;;;5.15;;
44428;SDS011;30134;47.866;-4.222;2022-10-31T04:43:59;6.45;;;4.25;;
44428;SDS011;30134;47.866;-4.222;2022-10-31T04:46:25;9.60;;;4.70;;
44428;SDS011;30134;47.866;-4.222;2022-10-31T04:48:51;10.48;;;5.03;;
44428;SDS011;30134;47.866;-4.222;2022-10-31T04:51:17;8.40;;;4.55;;
44428;SDS011;30134;47.866;-4.222;2022-10-31T04:53:43;8.70;;;4.30;;
44428;SDS011;30134;47.866;-4.222;2022-10-31T04:56:09;7.47;;;4.35;;
44428;SDS011;30134;47.866;-4.222;2022-10-31T04:58:35;6.22;;;3.90;;
44428;SDS011;30134;47.866;-4.222;2022-10-31T05:01:01;7.43;;;3.97;;
44428;SDS011;30134;47.866;-4.222;2022-10-31T05:03:27;5.88;;;3.38;;
44428;SDS011;30134;47.866;-4.222;2022-10-31T05:05:53;6.90;;;3.42;;
44428;SDS011;30134;47.866;-4.222;2022-10-31T05:08:19;7.38;;;3.63;;
44428;SDS011;30134;47.866;-4.222;2022-10-31T05:10:45;8.18;;;4.05;;
44428;SDS011;30134;47.866;-4.222;2022-10-31T05:13:11;5.65;;;3.60;;
44428;SDS011;30134;47.866;-4.222;2022-10-31T05:15:37;6.80;;;3.53;;
44428;SDS011;30134;47.866;-4.222;2022-10-31T05:18:03;6.47;;;3.40;;
44428;SDS011;30134;47.866;-4.222;2022-10-31T05:20:29;6.10;;;3.05;;
44428;SDS011;30134;47.866;-4.222;2022-10-31T05:22:56;6.30;;;3.47;;
44428;SDS011;30134;47.866;-4.222;2022-10-31T05:25:24;6.72;;;3.63;;
44428;SDS011;30134;47.866;-4.222;2022-10-31T05:27:53;6.20;;;3.38;;
44428;SDS011;30134;47.866;-4.222;2022-10-31T05:30:21;5.57;;;3.15;;
44428;SDS011;30134;47.866;-4.222;2022-10-31T05:32:50;4.60;;;2.83;;
44428;SDS011;30134;47.866;-4.222;2022-10-31T05:35:21;4.63;;;2.65;;
44428;SDS011;30134;47.866;-4.222;2022-10-31T05:37:56;5.45;;;2.65;;
44428;SDS011;30134;47.866;-4.222;2022-10-31T05:40:26;5.00;;;3.17;;
44428;SDS011;30134;47.866;-4.222;2022-10-31T05:42:54;4.28;;;2.67;;
44428;SDS011;30134;47.866;-4.222;2022-10-31T05:45:21;4.82;;;2.55;;
44428;SDS011;30134;47.866;-4.222;2022-10-31T05:47:55;4.07;;;2.45;;
44428;SDS011;30134;47.866;-4.222;2022-10-31T05:50:23;4.47;;;2.60;;
44428;SDS011;30134;47.866;-4.222;2022-10-31T05:52:59;4.38;;;2.25;;
44428;SDS011;30134;47.866;-4.222;2022-10-31T05:55:28;6.60;;;2.97;;
44428;SDS011;30134;47.866;-4.222;2022-10-31T05:57:55;4.82;;;2.55;;
44428;SDS011;30134;47.866;-4.222;2022-10-31T06:00:21;4.72;;;2.40;;
44428;SDS011;30134;47.866;-4.222;2022-10-31T06:02:49;3.92;;;2.20;;
44428;SDS011;30134;47.866;-4.222;2022-10-31T06:05:22;5.10;;;2.63;;
44428;SDS011;30134;47.866;-4.222;2022-10-31T06:07:48;4.43;;;2.20;;
44428;SDS011;30134;47.866;-4.222;2022-10-31T06:10:14;3.22;;;2.08;;
44428;SDS011;30134;47.866;-4.222;2022-10-31T06:12:40;3.70;;;2.10;;
44428;SDS011;30134;47.866;-4.222;2022-10-31T06:15:07;3.42;;;1.90;;
44428;SDS011;30134;47.866;-4.222;2022-10-31T06:17:34;3.67;;;2.00;;
44428;SDS011;30134;47.866;-4.222;2022-10-31T06:20:01;3.53;;;1.90;;
44428;SDS011;30134;47.866;-4.222;2022-10-31T06:22:31;5.03;;;1.80;;
44428;SDS011;30134;47.866;-4.222;2022-10-31T06:24:57;4.20;;;1.70;;
44428;SDS011;30134;47.866;-4.222;2022-10-31T06:27:24;3.22;;;1.75;;
44428;SDS011;30134;47.866;-4.222;2022-10-31T06:29:51;3.35;;;1.90;;
44428;SDS011;30134;47.866;-4.222;2022-10-31T06:32:17;3.28;;;1.50;;
44428;SDS011;30134;47.866;-4.222;2022-10-31T06:34:43;2.15;;;1.50;;
44428;SDS011;30134;47.866;-4.222;2022-10-31T06:37:13;4.32;;;1.77;;
44428;SDS011;30134;47.866;-4.222;2022-10-31T06:39:39;3.33;;;1.75;;
44428;SDS011;30134;47.866;-4.222;2022-10-31T06:42:08;4.47;;;2.08;;
44428;SDS011;30134;47.866;-4.222;2022-10-31T06:44:33;3.35;;;1.58;;
44428;SDS011;30134;47.866;-4.222;2022-10-31T06:46:59;2.90;;;1.60;;
44428;SDS011;30134;47.866;-4.222;2022-10-31T06:49:25;2.70;;;1.45;;
44428;SDS011;30134;47.866;-4.222;2022-10-31T06:51:51;3.17;;;1.67;;
44428;SDS011;30134;47.866;-4.222;2022-10-31T06:54:17;4.03;;;1.90;;
44428;SDS011;30134;47.866;-4.222;2022-10-31T06:56:45;3.75;;;1.40;;
44428;SDS011;30134;47.866;-4.222;2022-10-31T06:59:14;3.53;;;1.52;;
44428;SDS011;30134;47.866;-4.222;2022-10-31T07:01:43;4.40;;;2.03;;
44428;SDS011;30134;47.866;-4.222;2022-10-31T07:04:10;2.78;;;1.60;;
44428;SDS011;30134;47.866;-4.222;2022-10-31T07:06:37;2.53;;;1.50;;
44428;SDS011;30134;47.866;-4.222;2022-10-31T07:09:03;3.70;;;1.50;;
44428;SDS011;30134;47.866;-4.222;2022-10-31T07:11:29;3.33;;;1.60;;
44428;SDS011;30134;47.866;-4.222;2022-10-31T07:13:55;4.03;;;1.63;;
44428;SDS011;30134;47.866;-4.222;2022-10-31T07:16:21;3.35;;;1.50;;
44428;SDS011;30134;47.866;-4.222;2022-10-31T07:18:47;3.85;;;1.63;;
44428;SDS011;30134;47.866;-4.222;2022-10-31T07:21:13;2.22;;;1.30;;
44428;SDS011;30134;47.866;-4.222;2022-10-31T07:23:39;3.90;;;1.75;;
44428;SDS011;30134;47.866;-4.222;2022-10-31T07:26:05;3.10;;;1.38;;
44428;SDS011;30134;47.866;-4.222;2022-10-31T07:28:31;4.20;;;1.30;;
44428;SDS011;30134;47.866;-4.222;2022-10-31T07:30:57;4.68;;;1.30;;
44428;SDS011;30134;47.866;-4.222;2022-10-31T07:33:23;3.00;;;1.48;;
44428;SDS011;30134;47.866;-4.222;2022-10-31T07:35:51;2.28;;;1.17;;
44428;SDS011;30134;47.866;-4.222;2022-10-31T07:38:18;2.78;;;1.27;;
44428;SDS011;30134;47.866;-4.222;2022-10-31T07:40:49;2.35;;;1.10;;
44428;SDS011;30134;47.866;-4.222;2022-10-31T07:43:17;3.10;;;1.30;;
44428;SDS011;30134;47.866;-4.222;2022-10-31T07:45:44;3.45;;;1.65;;
44428;SDS011;30134;47.866;-4.222;2022-10-31T07:48:18;2.42;;;1.30;;
44428;SDS011;30134;47.866;-4.222;2022-10-31T07:50:44;3.97;;;1.70;;
44428;SDS011;30134;47.866;-4.222;2022-10-31T07:53:11;2.05;;;1.30;;
44428;SDS011;30134;47.866;-4.222;2022-10-31T07:55:39;2.63;;;1.35;;
44428;SDS011;30134;47.866;-4.222;2022-10-31T07:58:09;3.80;;;1.20;;
44428;SDS011;30134;47.866;-4.222;2022-10-31T08:00:42;3.75;;;1.60;;
44428;SDS011;30134;47.866;-4.222;2022-10-31T08:03:11;3.05;;;1.30;;
44428;SDS011;30134;47.866;-4.222;2022-10-31T08:05:42;3.38;;;1.17;;
44428;SDS011;30134;47.866;-4.222;2022-10-31T08:08:12;3.55;;;1.35;;
44428;SDS011;30134;47.866;-4.222;2022-10-31T08:10:39;2.72;;;1.23;;
44428;SDS011;30134;47.866;-4.222;2022-10-31T08:13:09;3.15;;;1.25;;
44428;SDS011;30134;47.866;-4.222;2022-10-31T08:15:37;2.70;;;1.30;;
44428;SDS011;30134;47.866;-4.222;2022-10-31T08:18:06;3.42;;;1.40;;
44428;SDS011;30134;47.866;-4.222;2022-10-31T08:20:40;4.35;;;1.55;;
44428;SDS011;30134;47.866;-4.222;2022-10-31T08:23:07;4.88;;;1.55;;
44428;SDS011;30134;47.866;-4.222;2022-10-31T08:25:35;2.67;;;1.27;;
44428;SDS011;30134;47.866;-4.222;2022-10-31T08:28:02;4.85;;;1.25;;
44428;SDS011;30134;47.866;-4.222;2022-10-31T08:30:29;3.03;;;1.42;;
44428;SDS011;30134;47.866;-4.222;2022-10-31T08:32:58;4.90;;;1.58;;
44428;SDS011;30134;47.866;-4.222;2022-10-31T08:35:39;4.13;;;1.70;;
44428;SDS011;30134;47.866;-4.222;2022-10-31T08:38:05;4.05;;;1.60;;
44428;SDS011;30134;47.866;-4.222;2022-10-31T08:40:34;3.63;;;1.35;;
44428;SDS011;30134;47.866;-4.222;2022-10-31T08:43:01;4.32;;;1.50;;
44428;SDS011;30134;47.866;-4.222;2022-10-31T08:45:36;3.88;;;1.30;;
44428;SDS011;30134;47.866;-4.222;2022-10-31T08:48:03;4.68;;;1.50;;
44428;SDS011;30134;47.866;-4.222;2022-10-31T08:50:32;3.72;;;1.58;;
44428;SDS011;30134;47.866;-4.222;2022-10-31T08:53:07;3.78;;;1.40;;
44428;SDS011;30134;47.866;-4.222;2022-10-31T08:55:37;3.63;;;1.40;;
44428;SDS011;30134;47.866;-4.222;2022-10-31T08:58:05;5.50;;;1.73;;
44428;SDS011;30134;47.866;-4.222;2022-10-31T09:00:35;4.60;;;1.30;;
44428;SDS011;30134;47.866;-4.222;2022-10-31T09:03:03;5.07;;;1.50;;
44428;SDS011;30134;47.866;-4.222;2022-10-31T09:05:33;4.03;;;1.58;;
44428;SDS011;30134;47.866;-4.222;2022-10-31T09:08:01;4.95;;;1.85;;
44428;SDS011;30134;47.866;-4.222;2022-10-31T09:10:29;5.18;;;1.80;;
44428;SDS011;30134;47.866;-4.222;2022-10-31T09:13:00;4.68;;;1.90;;
44428;SDS011;30134;47.866;-4.222;2022-10-31T09:15:31;4.82;;;1.80;;
44428;SDS011;30134;47.866;-4.222;2022-10-31T09:17:59;5.82;;;1.83;;
44428;SDS011;30134;47.866;-4.222;2022-10-31T09:20:28;4.63;;;1.50;;
44428;SDS011;30134;47.866;-4.222;2022-10-31T09:23:01;5.45;;;1.73;;
44428;SDS011;30134;47.866;-4.222;2022-10-31T09:25:33;2.47;;;1.20;;
44428;SDS011;30134;47.866;-4.222;2022-10-31T09:28:01;4.20;;;1.55;;
44428;SDS011;30134;47.866;-4.222;2022-10-31T09:30:29;4.30;;;1.55;;
44428;SDS011;30134;47.866;-4.222;2022-10-31T09:32:57;3.47;;;1.63;;
44428;SDS011;30134;47.866;-4.222;2022-10-31T09:35:25;5.38;;;1.77;;
44428;SDS011;30134;47.866;-4.222;2022-10-31T09:37:56;5.65;;;1.60;;
44428;SDS011;30134;47.866;-4.222;2022-10-31T09:40:26;4.70;;;1.58;;
44428;SDS011;30134;47.866;-4.222;2022-10-31T09:46:23;7.03;;;1.80;;
44428;SDS011;30134;47.866;-4.222;2022-10-31T09:49:08;5.07;;;1.70;;
44428;SDS011;30134;47.866;-4.222;2022-10-31T09:52:05;3.72;;;1.60;;
44428;SDS011;30134;47.866;-4.222;2022-10-31T09:55:18;4.75;;;1.92;;
44428;SDS011;30134;47.866;-4.222;2022-10-31T09:58:14;5.30;;;1.60;;
44428;SDS011;30134;47.866;-4.222;2022-10-31T10:00:47;6.20;;;1.48;;
44428;SDS011;30134;47.866;-4.222;2022-10-31T10:06:13;139.65;;;82.82;;
44428;SDS011;30134;47.866;-4.222;2022-10-31T10:08:46;208.23;;;126.28;;
44428;SDS011;30134;47.866;-4.222;2022-10-31T10:11:31;223.57;;;131.70;;
44428;SDS011;30134;47.866;-4.222;2022-10-31T10:14:32;216.50;;;132.02;;
44428;SDS011;30134;47.866;-4.222;2022-10-31T10:22:50;180.15;;;107.25;;
44428;SDS011;30134;47.866;-4.222;2022-10-31T10:25:39;165.27;;;98.65;;
44428;SDS011;30134;47.866;-4.222;2022-10-31T10:28:19;150.43;;;91.38;;
44428;SDS011;30134;47.866;-4.222;2022-10-31T10:31:13;137.77;;;83.28;;
44428;SDS011;30134;47.866;-4.222;2022-10-31T10:36:17;116.03;;;70.95;;
44428;SDS011;30134;47.866;-4.222;2022-10-31T10:39:11;106.13;;;61.05;;
44428;SDS011;30134;47.866;-4.222;2022-10-31T10:41:47;99.03;;;57.58;;
44428;SDS011;30134;47.866;-4.222;2022-10-31T10:44:37;88.13;;;52.80;;
44428;SDS011;30134;47.866;-4.222;2022-10-31T10:47:27;80.82;;;48.83;;
44428;SDS011;30134;47.866;-4.222;2022-10-31T10:50:09;71.57;;;43.30;;
44428;SDS011;30134;47.866;-4.222;2022-10-31T10:58:42;53.80;;;33.17;;
44428;SDS011;30134;47.866;-4.222;2022-10-31T11:01:12;49.10;;;30.92;;
44428;SDS011;30134;47.866;-4.222;2022-10-31T11:03:40;51.55;;;28.88;;
44428;SDS011;30134;47.866;-4.222;2022-10-31T11:06:18;42.70;;;25.02;;
44428;SDS011;30134;47.866;-4.222;2022-10-31T11:08:52;37.13;;;23.55;;
44428;SDS011;30134;47.866;-4.222;2022-10-31T11:11:28;34.05;;;21.73;;
44428;SDS011;30134;47.866;-4.222;2022-10-31T11:14:11;33.63;;;19.83;;
44428;SDS011;30134;47.866;-4.222;2022-10-31T11:16:44;31.65;;;18.92;;
44428;SDS011;30134;47.866;-4.222;2022-10-31T11:19:21;28.35;;;17.38;;
44428;SDS011;30134;47.866;-4.222;2022-10-31T11:21:52;24.52;;;15.07;;
44428;SDS011;30134;47.866;-4.222;2022-10-31T11:24:20;22.98;;;13.23;;
44428;SDS011;30134;47.866;-4.222;2022-10-31T11:26:51;20.25;;;11.68;;
44428;SDS011;30134;47.866;-4.222;2022-10-31T11:29:27;18.30;;;10.85;;
44428;SDS011;30134;47.866;-4.222;2022-10-31T11:31:56;16.75;;;9.88;;
44428;SDS011;30134;47.866;-4.222;2022-10-31T11:34:29;16.00;;;8.68;;
44428;SDS011;30134;47.866;-4.222;2022-10-31T11:39:43;12.90;;;7.50;;
44428;SDS011;30134;47.866;-4.222;2022-10-31T11:42:18;11.95;;;6.88;;
44428;SDS011;30134;47.866;-4.222;2022-10-31T11:44:50;12.32;;;6.72;;
44428;SDS011;30134;47.866;-4.222;2022-10-31T11:47:20;12.50;;;6.57;;
44428;SDS011;30134;47.866;-4.222;2022-10-31T11:49:57;38.67;;;22.17;;
44428;SDS011;30134;47.866;-4.222;2022-10-31T11:52:34;44.00;;;26.67;;
44428;SDS011;30134;47.866;-4.222;2022-10-31T11:55:15;53.55;;;33.80;;
44428;SDS011;30134;47.866;-4.222;2022-10-31T11:57:55;70.63;;;40.78;;
44428;SDS011;30134;47.866;-4.222;2022-10-31T12:08:27;72.75;;;42.78;;
44428;SDS011;30134;47.866;-4.222;2022-10-31T12:16:36;58.05;;;36.05;;
44428;SDS011;30134;47.866;-4.222;2022-10-31T12:27:56;42.35;;;26.67;;
44428;SDS011;30134;47.866;-4.222;2022-10-31T12:34:09;37.63;;;23.27;;
44428;SDS011;30134;47.866;-4.222;2022-10-31T12:37:03;38.42;;;21.73;;
44428;SDS011;30134;47.866;-4.222;2022-10-31T12:48:11;31.90;;;19.45;;
44428;SDS011;30134;47.866;-4.222;2022-10-31T12:56:52;28.80;;;17.52;;
44428;SDS011;30134;47.866;-4.222;2022-10-31T13:05:01;22.73;;;14.90;;
44428;SDS011;30134;47.866;-4.222;2022-10-31T13:10:26;20.05;;;13.45;;
44428;SDS011;30134;47.866;-4.222;2022-10-31T13:13:07;17.45;;;12.10;;
44428;SDS011;30134;47.866;-4.222;2022-10-31T13:16:13;18.25;;;11.95;;
44428;SDS011;30134;47.866;-4.222;2022-10-31T13:18:47;16.75;;;11.48;;
44428;SDS011;30134;47.866;-4.222;2022-10-31T13:24:33;16.05;;;11.05;;
44428;SDS011;30134;47.866;-4.222;2022-10-31T13:27:09;17.02;;;10.68;;
44428;SDS011;30134;47.866;-4.222;2022-10-31T13:29:58;14.02;;;9.32;;
44428;SDS011;30134;47.866;-4.222;2022-10-31T13:35:16;13.70;;;9.18;;
44428;SDS011;30134;47.866;-4.222;2022-10-31T13:40:59;13.27;;;8.38;;
44428;SDS011;30134;47.866;-4.222;2022-10-31T13:48:56;10.98;;;7.45;;
44428;SDS011;30134;47.866;-4.222;2022-10-31T13:51:32;11.30;;;7.25;;
44428;SDS011;30134;47.866;-4.222;2022-10-31T13:54:01;11.48;;;6.88;;
44428;SDS011;30134;47.866;-4.222;2022-10-31T13:56:51;9.13;;;6.85;;
44428;SDS011;30134;47.866;-4.222;2022-10-31T13:59:19;10.05;;;6.72;;
44428;SDS011;30134;47.866;-4.222;2022-10-31T14:01:49;18.77;;;6.55;;
44428;SDS011;30134;47.866;-4.222;2022-10-31T14:04:21;24.50;;;6.80;;
44428;SDS011;30134;47.866;-4.222;2022-10-31T14:09:38;11.32;;;6.70;;
44428;SDS011;30134;47.866;-4.222;2022-10-31T14:15:21;12.15;;;7.25;;
44428;SDS011;30134;47.866;-4.222;2022-10-31T14:18:00;12.75;;;8.18;;
44428;SDS011;30134;47.866;-4.222;2022-10-31T14:20:38;17.35;;;9.50;;
44428;SDS011;30134;47.866;-4.222;2022-10-31T14:23:10;19.33;;;10.23;;
44428;SDS011;30134;47.866;-4.222;2022-10-31T14:25:51;18.35;;;11.40;;
44428;SDS011;30134;47.866;-4.222;2022-10-31T14:28:19;19.58;;;11.93;;
44428;SDS011;30134;47.866;-4.222;2022-10-31T14:30:58;21.58;;;13.88;;
44428;SDS011;30134;47.866;-4.222;2022-10-31T14:33:26;25.88;;;15.55;;
44428;SDS011;30134;47.866;-4.222;2022-10-31T14:36:09;25.17;;;16.02;;
44428;SDS011;30134;47.866;-4.222;2022-10-31T14:48:10;31.70;;;19.13;;
44428;SDS011;30134;47.866;-4.222;2022-10-31T14:50:57;31.05;;;20.17;;
44428;SDS011;30134;47.866;-4.222;2022-10-31T14:56:00;30.65;;;20.85;;
44428;SDS011;30134;47.866;-4.222;2022-10-31T14:58:37;30.65;;;20.52;;
44428;SDS011;30134;47.866;-4.222;2022-10-31T15:01:23;33.00;;;22.10;;
44428;SDS011;30134;47.866;-4.222;2022-10-31T15:03:58;31.67;;;21.73;;
44428;SDS011;30134;47.866;-4.222;2022-10-31T15:06:44;32.17;;;22.00;;
44428;SDS011;30134;47.866;-4.222;2022-10-31T15:11:53;31.48;;;21.60;;
44428;SDS011;30134;47.866;-4.222;2022-10-31T15:14:23;30.48;;;20.73;;
44428;SDS011;30134;47.866;-4.222;2022-10-31T15:16:58;31.10;;;21.08;;
44428;SDS011;30134;47.866;-4.222;2022-10-31T15:19:29;31.05;;;20.45;;
44428;SDS011;30134;47.866;-4.222;2022-10-31T15:21:57;30.23;;;20.85;;
44428;SDS011;30134;47.866;-4.222;2022-10-31T15:24:37;29.08;;;20.17;;
44428;SDS011;30134;47.866;-4.222;2022-10-31T15:27:05;27.90;;;19.83;;
44428;SDS011;30134;47.866;-4.222;2022-10-31T15:29:48;29.63;;;20.40;;
44428;SDS011;30134;47.866;-4.222;2022-10-31T15:34:48;31.17;;;20.40;;
44428;SDS011;30134;47.866;-4.222;2022-10-31T15:37:16;28.13;;;19.08;;
44428;SDS011;30134;47.866;-4.222;2022-10-31T15:39:47;27.10;;;18.35;;
44428;SDS011;30134;47.866;-4.222;2022-10-31T15:42:21;25.27;;;17.92;;
44428;SDS011;30134;47.866;-4.222;2022-10-31T15:44:58;27.90;;;17.75;;
44428;SDS011;30134;47.866;-4.222;2022-10-31T15:47:30;29.13;;;17.13;;
44428;SDS011;30134;47.866;-4.222;2022-10-31T15:49:58;22.65;;;15.75;;
44428;SDS011;30134;47.866;-4.222;2022-10-31T15:52:30;21.75;;;15.65;;
44428;SDS011;30134;47.866;-4.222;2022-10-31T15:55:17;23.90;;;15.70;;
44428;SDS011;30134;47.866;-4.222;2022-10-31T15:57:50;21.48;;;15.05;;
44428;SDS011;30134;47.866;-4.222;2022-10-31T16:00:41;21.02;;;13.95;;
44428;SDS011;30134;47.866;-4.222;2022-10-31T16:08:30;21.60;;;13.23;;
44428;SDS011;30134;47.866;-4.222;2022-10-31T16:11:00;19.63;;;12.57;;
44428;SDS011;30134;47.866;-4.222;2022-10-31T16:13:40;16.52;;;11.25;;
44428;SDS011;30134;47.866;-4.222;2022-10-31T16:16:32;19.55;;;11.63;;
44428;SDS011;30134;47.866;-4.222;2022-10-31T16:19:05;19.75;;;11.57;;
44428;SDS011;30134;47.866;-4.222;2022-10-31T16:21:48;14.35;;;10.25;;
44428;SDS011;30134;47.866;-4.222;2022-10-31T16:24:48;15.45;;;9.75;;
44428;SDS011;30134;47.866;-4.222;2022-10-31T16:27:27;13.20;;;8.63;;
44428;SDS011;30134;47.866;-4.222;2022-10-31T16:29:56;11.48;;;7.72;;
44428;SDS011;30134;47.866;-4.222;2022-10-31T16:32:33;12.07;;;7.95;;
44428;SDS011;30134;47.866;-4.222;2022-10-31T16:37:39;13.80;;;7.60;;
44428;SDS011;30134;47.866;-4.222;2022-10-31T16:40:06;11.77;;;6.88;;
44428;SDS011;30134;47.866;-4.222;2022-10-31T16:42:41;12.43;;;6.80;;
44428;SDS011;30134;47.866;-4.222;2022-10-31T16:45:13;14.55;;;6.30;;
44428;SDS011;30134;47.866;-4.222;2022-10-31T16:47:45;10.35;;;5.95;;
44428;SDS011;30134;47.866;-4.222;2022-10-31T16:50:14;9.23;;;5.65;;
44428;SDS011;30134;47.866;-4.222;2022-10-31T16:52:52;9.70;;;5.65;;
44428;SDS011;30134;47.866;-4.222;2022-10-31T16:55:18;11.50;;;5.72;;
44428;SDS011;30134;47.866;-4.222;2022-10-31T16:57:47;8.82;;;5.35;;
44428;SDS011;30134;47.866;-4.222;2022-10-31T17:00:23;8.88;;;4.63;;
44428;SDS011;30134;47.866;-4.222;2022-10-31T17:02:52;8.93;;;4.88;;
44428;SDS011;30134;47.866;-4.222;2022-10-31T17:05:21;8.43;;;4.80;;
44428;SDS011;30134;47.866;-4.222;2022-10-31T17:07:55;7.85;;;4.13;;
44428;SDS011;30134;47.866;-4.222;2022-10-31T17:10:21;6.85;;;4.30;;
44428;SDS011;30134;47.866;-4.222;2022-10-31T17:12:48;5.82;;;3.95;;
44428;SDS011;30134;47.866;-4.222;2022-10-31T17:15:16;6.57;;;3.83;;
44428;SDS011;30134;47.866;-4.222;2022-10-31T17:17:54;7.43;;;3.55;;
44428;SDS011;30134;47.866;-4.222;2022-10-31T17:20:22;6.05;;;3.45;;